createdAt,value
2017-07-21T00:00:41.763Z,77.94
2017-07-21T00:01:55.959Z,78.03
2017-07-21T00:03:11.411Z,78.03
2017-07-21T00:04:27.400Z,77.94
2017-07-21T00:05:42.819Z,78.23
2017-07-21T00:07:10.426Z,78.33
2017-07-21T00:08:26.005Z,78.38
2017-07-21T00:09:41.485Z,78.13
2017-07-21T00:10:57.129Z,78.29
2017-07-21T00:12:13.004Z,78.67
2017-07-21T00:13:27.161Z,78.77
2017-07-21T00:14:42.848Z,78.67
2017-07-21T00:15:58.449Z,78.67
2017-07-21T00:17:13.949Z,78.67
2017-07-21T00:18:29.407Z,78.77
2017-07-21T00:19:44.067Z,79.16
2017-07-21T00:20:59.541Z,79.16
2017-07-21T00:22:15.045Z,79.35
2017-07-21T00:23:30.504Z,79.44
2017-07-21T00:24:46.176Z,79.35
2017-07-21T00:26:01.728Z,79.06
2017-07-21T00:27:17.283Z,79.21
2017-07-21T00:28:32.762Z,79.74
2017-07-21T00:29:48.465Z,79.6
2017-07-21T00:31:03.942Z,79.64
2017-07-21T00:32:19.125Z,79.64
2017-07-21T00:33:34.777Z,79.98
2017-07-21T00:34:50.482Z,79.89
2017-07-21T00:36:06.150Z,79.89
2017-07-21T00:37:21.612Z,80.18
2017-07-21T00:38:37.197Z,80.08
2017-07-21T00:39:51.616Z,80.08
2017-07-21T00:41:07.049Z,80.18
2017-07-21T00:42:22.529Z,79.98
2017-07-21T00:43:36.779Z,80.08
2017-07-21T00:44:52.645Z,80.08
2017-07-21T00:46:08.427Z,80.27
2017-07-21T00:47:23.909Z,80.66
2017-07-21T00:48:39.354Z,80.37
2017-07-21T00:49:53.792Z,80.56
2017-07-21T00:51:09.272Z,80.37
2017-07-21T00:52:24.681Z,80.56
2017-07-21T00:53:40.141Z,80.18
2017-07-21T00:54:55.845Z,80.18
2017-07-21T00:56:11.358Z,80.18
2017-07-21T00:57:26.456Z,79.98
2017-07-21T00:58:41.890Z,79.89
2017-07-21T00:59:57.583Z,80.18
2017-07-21T01:01:13.079Z,80.18
2017-07-21T01:02:28.533Z,79.89
2017-07-21T01:03:43.973Z,79.69
2017-07-21T01:04:58.374Z,79.69
2017-07-21T01:06:13.850Z,79.11
2017-07-21T01:07:29.313Z,79.02
2017-07-21T01:08:43.436Z,79.11
2017-07-21T01:09:58.820Z,79.02
2017-07-21T01:11:14.295Z,79.02
2017-07-21T01:12:29.716Z,79.11
2017-07-21T01:13:45.198Z,79.44
2017-07-21T01:15:00.904Z,79.16
2017-07-21T01:16:16.401Z,79.5
2017-07-21T01:17:31.861Z,79.31
2017-07-21T01:18:47.368Z,78.92
2017-07-21T01:20:01.710Z,78.92
2017-07-21T01:21:17.403Z,79.02
2017-07-21T01:22:32.860Z,79.11
2017-07-21T01:23:48.331Z,79.02
2017-07-21T01:25:04.035Z,78.73
2017-07-21T01:26:19.475Z,78.83
2017-07-21T01:27:34.956Z,79.02
2017-07-21T01:28:49.125Z,78.83
2017-07-21T01:30:04.911Z,79.02
2017-07-21T01:31:20.382Z,78.25
2017-07-21T01:32:35.477Z,78.25
2017-07-21T01:33:50.886Z,77.96
2017-07-21T01:35:06.603Z,78.06
2017-07-21T01:36:22.085Z,78.44
2017-07-21T01:37:37.545Z,78.25
2017-07-21T01:38:53.001Z,77.86
2017-07-21T01:40:08.703Z,77.76
2017-07-21T01:41:24.325Z,77.86
2017-07-21T01:42:39.989Z,77.86
2017-07-21T01:43:55.371Z,77.86
2017-07-21T01:45:11.092Z,77.67
2017-07-21T01:46:26.555Z,77.76
2017-07-21T01:47:42.000Z,77.48
2017-07-21T01:48:57.376Z,77.48
2017-07-21T01:50:13.108Z,77.09
2017-07-21T01:51:28.594Z,77.38
2017-07-21T01:52:44.053Z,76.8
2017-07-21T01:53:59.499Z,77
2017-07-21T01:55:12.762Z,77.15
2017-07-21T01:56:25.560Z,77.09
2017-07-21T01:57:39.707Z,77
2017-07-21T01:58:55.411Z,76.96
2017-07-21T02:00:10.876Z,77
2017-07-21T02:01:25.370Z,77.09
2017-07-21T02:02:40.836Z,76.96
2017-07-21T02:03:56.263Z,77.06
2017-07-21T02:05:10.408Z,76.96
2017-07-21T02:06:26.152Z,77.63
2017-07-21T02:07:41.621Z,77.73
2017-07-21T02:08:57.321Z,77.44
2017-07-21T02:10:12.900Z,77.83
2017-07-21T02:11:28.231Z,77.73
2017-07-21T02:12:43.697Z,78.11
2017-07-21T02:13:59.165Z,78.69
2017-07-21T02:15:14.654Z,78.94
2017-07-21T02:16:29.964Z,79.03
2017-07-21T02:17:44.115Z,79.52
2017-07-21T02:18:59.553Z,79.71
2017-07-21T02:20:15.184Z,80
2017-07-21T02:21:31.258Z,80.1
2017-07-21T02:22:46.713Z,79.71
2017-07-21T02:24:02.535Z,80.29
2017-07-21T02:25:18.182Z,80.29
2017-07-21T02:26:33.872Z,80.48
2017-07-21T02:27:49.350Z,80.35
2017-07-21T02:29:03.457Z,80.54
2017-07-21T02:30:18.873Z,80.92
2017-07-21T02:31:34.613Z,80.92
2017-07-21T02:32:49.721Z,80.92
2017-07-21T02:34:05.210Z,81.02
2017-07-21T02:35:20.853Z,80.92
2017-07-21T02:36:36.747Z,81.12
2017-07-21T02:37:51.850Z,81.12
2017-07-21T02:39:07.395Z,80.35
2017-07-21T02:40:21.522Z,81.02
2017-07-21T02:41:37.217Z,80.44
2017-07-21T02:42:51.458Z,80.63
2017-07-21T02:44:06.910Z,80.92
2017-07-21T02:45:21.072Z,80.54
2017-07-21T02:46:36.781Z,80.63
2017-07-21T02:47:52.237Z,80.73
2017-07-21T02:49:07.697Z,80.92
2017-07-21T02:50:23.274Z,81.02
2017-07-21T02:51:39.112Z,81.02
2017-07-21T02:52:54.557Z,80.73
2017-07-21T02:54:08.689Z,81.02
2017-07-21T02:55:21.538Z,81.12
2017-07-21T02:56:37.291Z,80.92
2017-07-21T02:57:52.757Z,80.63
2017-07-21T02:59:08.268Z,80.92
2017-07-21T03:00:23.926Z,81.02
2017-07-21T03:01:39.609Z,81.02
2017-07-21T03:02:55.019Z,80.92
2017-07-21T03:04:10.520Z,81.21
2017-07-21T03:05:25.957Z,81.02
2017-07-21T03:06:41.578Z,81.02
2017-07-21T03:07:57.054Z,81.02
2017-07-21T03:09:11.374Z,81.12
2017-07-21T03:10:26.845Z,81.21
2017-07-21T03:11:42.613Z,80.83
2017-07-21T03:12:58.448Z,81.12
2017-07-21T03:14:14.083Z,81.79
2017-07-21T03:15:29.540Z,81.7
2017-07-21T03:16:45.239Z,81.79
2017-07-21T03:17:59.379Z,81.88
2017-07-21T03:19:15.124Z,82.27
2017-07-21T03:20:30.621Z,82.32
2017-07-21T03:21:46.345Z,82.32
2017-07-21T03:23:01.919Z,82.23
2017-07-21T03:24:17.409Z,82.04
2017-07-21T03:25:32.870Z,81.94
2017-07-21T03:26:48.559Z,82.04
2017-07-21T03:28:04.071Z,81.94
2017-07-21T03:29:18.225Z,81.84
2017-07-21T03:30:34.046Z,82.23
2017-07-21T03:31:49.741Z,81.94
2017-07-21T03:33:03.908Z,82.42
2017-07-21T03:34:19.556Z,82.61
2017-07-21T03:35:35.020Z,82.14
2017-07-21T03:36:50.754Z,82.23
2017-07-21T03:38:06.142Z,81.94
2017-07-21T03:39:21.582Z,81.94
2017-07-21T03:40:37.034Z,81.84
2017-07-21T03:41:52.716Z,82.32
2017-07-21T03:43:06.874Z,82.27
2017-07-21T03:44:21.029Z,82.27
2017-07-21T03:45:36.483Z,82.17
2017-07-21T03:46:52.270Z,81.5
2017-07-21T03:48:06.416Z,82.04
2017-07-21T03:49:21.890Z,82.37
2017-07-21T03:50:37.399Z,81.84
2017-07-21T03:51:51.536Z,81.94
2017-07-21T03:53:07.259Z,82.04
2017-07-21T03:54:22.794Z,82.04
2017-07-21T03:55:38.341Z,81.84
2017-07-21T03:56:53.756Z,82.14
2017-07-21T03:58:09.550Z,82.23
2017-07-21T03:59:25.129Z,81.98
2017-07-21T04:00:40.671Z,81.94
2017-07-21T04:01:56.099Z,81.98
2017-07-21T04:03:11.791Z,82.08
2017-07-21T04:04:26.023Z,82.27
2017-07-21T04:05:41.573Z,82.37
2017-07-21T04:06:57.003Z,82.56
2017-07-21T04:08:11.376Z,82.08
2017-07-21T04:09:26.883Z,82.27
2017-07-21T04:10:42.369Z,82.27
2017-07-21T04:11:57.828Z,82.46
2017-07-21T04:13:13.514Z,82.46
2017-07-21T04:14:29.077Z,82.56
2017-07-21T04:15:44.508Z,82.56
2017-07-21T04:16:59.986Z,82.17
2017-07-21T04:18:15.665Z,82.27
2017-07-21T04:19:31.138Z,82.65
2017-07-21T04:20:46.611Z,82.75
2017-07-21T04:22:02.068Z,82.75
2017-07-21T04:23:17.776Z,82.46
2017-07-21T04:24:33.224Z,82.56
2017-07-21T04:25:48.624Z,82.81
2017-07-21T04:27:03.929Z,82.75
2017-07-21T04:28:19.642Z,82.75
2017-07-21T04:29:35.250Z,82.75
2017-07-21T04:30:50.920Z,82.56
2017-07-21T04:32:06.373Z,83.04
2017-07-21T04:33:22.057Z,82.75
2017-07-21T04:34:37.524Z,82.71
2017-07-21T04:35:52.981Z,83.14
2017-07-21T04:37:08.453Z,83.14
2017-07-21T04:38:24.189Z,83.33
2017-07-21T04:39:36.977Z,83.42
2017-07-21T04:40:52.483Z,83.14
2017-07-21T04:42:07.949Z,83.33
2017-07-21T04:43:23.677Z,83.04
2017-07-21T04:44:39.138Z,83.33
2017-07-21T04:45:54.572Z,83.14
2017-07-21T04:47:10.115Z,83.23
2017-07-21T04:48:25.881Z,83.19
2017-07-21T04:49:41.665Z,83.23
2017-07-21T04:50:57.106Z,83.42
2017-07-21T04:52:12.546Z,82.65
2017-07-21T04:53:28.286Z,82.94
2017-07-21T04:54:43.734Z,83.04
2017-07-21T04:55:59.181Z,82.85
2017-07-21T04:57:14.570Z,82.65
2017-07-21T04:58:30.275Z,82.75
2017-07-21T04:59:45.742Z,82.56
2017-07-21T05:01:01.180Z,82.27
2017-07-21T05:02:16.667Z,82.17
2017-07-21T05:03:32.384Z,82.56
2017-07-21T05:04:47.957Z,81.98
2017-07-21T05:06:03.634Z,82.27
2017-07-21T05:07:19.112Z,81.98
2017-07-21T05:08:34.812Z,82.27
2017-07-21T05:09:50.263Z,82.08
2017-07-21T05:11:05.671Z,81.7
2017-07-21T05:12:21.370Z,81.6
2017-07-21T05:13:37.090Z,81.35
2017-07-21T05:14:52.548Z,81.16
2017-07-21T05:16:08.039Z,81.16
2017-07-21T05:17:23.490Z,81.06
2017-07-21T05:18:39.204Z,81.25
2017-07-21T05:20:25.519Z,81.25
2017-07-21T05:21:40.981Z,81.02
2017-07-21T05:22:57.176Z,80.92
2017-07-21T05:24:12.649Z,80.87
2017-07-21T05:25:28.128Z,81.06
2017-07-21T05:26:43.564Z,80.68
2017-07-21T05:27:58.017Z,80.63
2017-07-21T05:29:12.255Z,81.12
2017-07-21T05:30:27.762Z,80.96
2017-07-21T05:31:41.906Z,80.96
2017-07-21T05:32:57.645Z,81.06
2017-07-21T05:34:13.166Z,80.68
2017-07-21T05:35:28.605Z,80.58
2017-07-21T05:36:44.052Z,80.48
2017-07-21T05:37:59.764Z,80.48
2017-07-21T05:39:14.883Z,79.9
2017-07-21T05:40:30.342Z,80.1
2017-07-21T05:41:44.494Z,80
2017-07-21T05:42:58.650Z,79.81
2017-07-21T05:44:14.523Z,79.71
2017-07-21T05:45:30.016Z,79.81
2017-07-21T05:46:45.445Z,79.81
2017-07-21T05:48:01.110Z,79.33
2017-07-21T05:49:16.783Z,79.23
2017-07-21T05:50:32.121Z,79.43
2017-07-21T05:51:47.621Z,79.36
2017-07-21T05:53:03.061Z,78.31
2017-07-21T05:54:18.765Z,78.11
2017-07-21T05:55:33.981Z,77.25
2017-07-21T05:56:49.430Z,76.76
2017-07-21T05:58:04.899Z,76.96
2017-07-21T05:59:20.653Z,76.57
2017-07-21T06:00:36.167Z,76.76
2017-07-21T06:01:51.605Z,76.57
2017-07-21T06:03:07.277Z,76.96
2017-07-21T06:04:22.633Z,75.32
2017-07-21T06:05:36.606Z,74.84
2017-07-21T06:06:50.760Z,75.55
2017-07-21T06:08:06.219Z,75.8
2017-07-21T06:09:22.177Z,75.36
2017-07-21T06:10:37.646Z,75.16
2017-07-21T06:11:51.778Z,75.07
2017-07-21T06:13:07.293Z,75.55
2017-07-21T06:14:21.715Z,75.16
2017-07-21T06:15:37.240Z,75.16
2017-07-21T06:16:52.845Z,75.07
2017-07-21T06:18:08.307Z,75.65
2017-07-21T06:19:24.159Z,75.16
2017-07-21T06:20:38.312Z,75.07
2017-07-21T06:21:53.963Z,74.78
2017-07-21T06:23:09.441Z,75.16
2017-07-21T06:24:23.852Z,75.07
2017-07-21T06:25:38.905Z,75.26
2017-07-21T06:26:54.361Z,75.16
2017-07-21T06:28:09.743Z,75.16
2017-07-21T06:29:25.718Z,75.16
2017-07-21T06:30:41.290Z,75.16
2017-07-21T06:31:56.727Z,75.26
2017-07-21T06:33:12.152Z,75.16
2017-07-21T06:34:27.844Z,75.07
2017-07-21T06:35:43.320Z,75.36
2017-07-21T06:36:58.791Z,75.26
2017-07-21T06:38:14.473Z,73.91
2017-07-21T06:39:30.202Z,73.82
2017-07-21T06:40:45.614Z,73.91
2017-07-21T06:42:01.100Z,74.2
2017-07-21T06:43:16.603Z,74.1
2017-07-21T06:46:00.852Z,73.18
2017-07-21T06:47:16.522Z,72.99
2017-07-21T06:48:32.223Z,73.37
2017-07-21T06:49:47.646Z,73.18
2017-07-21T06:51:03.091Z,73.27
2017-07-21T06:52:18.760Z,73.57
2017-07-21T06:53:34.443Z,73.37
2017-07-21T06:54:48.601Z,73.75
2017-07-21T06:56:04.193Z,73.37
2017-07-21T06:57:17.048Z,73.08
2017-07-21T06:58:32.779Z,73.18
2017-07-21T06:59:48.231Z,73.72
2017-07-21T07:01:03.715Z,73.57
2017-07-21T07:02:19.403Z,73.72
2017-07-21T07:03:35.230Z,74.01
2017-07-21T07:04:50.684Z,74.01
2017-07-21T07:06:19.736Z,73.82
2017-07-21T07:07:35.396Z,73.82
2017-07-21T07:08:51.126Z,72.85
2017-07-21T07:10:06.590Z,72.79
2017-07-21T07:11:22.049Z,72.69
2017-07-21T07:12:37.524Z,72.6
2017-07-21T07:13:52.178Z,72.6
2017-07-21T07:15:07.818Z,73.08
2017-07-21T07:16:23.220Z,72.21
2017-07-21T07:17:38.332Z,72.41
2017-07-21T07:18:54.093Z,71.67
2017-07-21T07:20:09.566Z,71.67
2017-07-21T07:21:24.993Z,71.67
2017-07-21T07:22:40.652Z,71.83
2017-07-21T07:23:55.048Z,71.86
2017-07-21T07:25:10.546Z,71.48
2017-07-21T07:26:25.985Z,70.61
2017-07-21T07:27:40.153Z,70.42
2017-07-21T07:28:54.399Z,70.7
2017-07-21T07:30:09.934Z,70.7
2017-07-21T07:31:25.393Z,70.8
2017-07-21T07:32:40.507Z,70.13
2017-07-21T07:33:56.246Z,70.06
2017-07-21T07:35:11.762Z,69.68
2017-07-21T07:36:26.838Z,69.62
2017-07-21T07:37:41.158Z,67.97
2017-07-21T07:39:09.167Z,67.01
2017-07-21T07:40:23.536Z,66.91
2017-07-21T07:41:39.026Z,67.01
2017-07-21T07:42:54.870Z,66.53
2017-07-21T07:44:10.614Z,66.43
2017-07-21T07:45:26.017Z,65.5
2017-07-21T07:46:40.195Z,66.53
2017-07-21T07:47:55.671Z,66.46
2017-07-21T07:49:11.402Z,66.27
2017-07-21T07:50:26.904Z,65.01
2017-07-21T07:51:42.534Z,65.69
2017-07-21T07:52:57.979Z,65.4
2017-07-21T07:54:13.635Z,65.01
2017-07-21T07:55:27.805Z,65.59
2017-07-21T07:56:43.256Z,65.34
2017-07-21T07:57:58.752Z,65.14
2017-07-21T07:59:13.033Z,64.11
2017-07-21T08:00:28.506Z,63.92
2017-07-21T08:01:44.002Z,63.53
2017-07-21T08:02:59.428Z,63.34
2017-07-21T08:04:15.165Z,63.05
2017-07-21T08:05:30.911Z,63.34
2017-07-21T08:06:46.449Z,62.95
2017-07-21T08:08:00.691Z,62.95
2017-07-21T08:09:16.340Z,63.05
2017-07-21T08:10:30.536Z,62.37
2017-07-21T08:11:45.986Z,62.56
2017-07-21T08:13:00.167Z,62.56
2017-07-21T08:14:15.813Z,62.47
2017-07-21T08:15:29.832Z,62.27
2017-07-21T08:16:45.305Z,62.21
2017-07-21T08:18:00.831Z,61.33
2017-07-21T08:19:16.738Z,60.37
2017-07-21T08:20:32.166Z,60.75
2017-07-21T08:21:47.603Z,61.15
2017-07-21T08:23:03.102Z,61.15
2017-07-21T08:24:18.813Z,60.08
2017-07-21T08:25:34.267Z,59.11
2017-07-21T08:26:50.349Z,59.98
2017-07-21T08:28:06.031Z,59.5
2017-07-21T08:29:20.450Z,58.95
2017-07-21T08:30:34.460Z,58.27
2017-07-21T08:31:50.115Z,56.65
2017-07-21T08:33:05.604Z,57.23
2017-07-21T08:34:21.356Z,57.04
2017-07-21T08:35:36.837Z,57.53
2017-07-21T08:36:52.307Z,55.88
2017-07-21T08:38:07.765Z,55.04
2017-07-21T08:39:23.714Z,54.45
2017-07-21T08:40:39.149Z,52.12
2017-07-21T08:42:08.226Z,53.77
2017-07-21T08:43:23.728Z,53.09
2017-07-21T08:44:39.415Z,52.22
2017-07-21T08:45:54.895Z,51.84
2017-07-21T08:47:10.378Z,52.83
2017-07-21T08:48:25.823Z,53.12
2017-07-21T08:49:41.516Z,51.57
2017-07-21T08:50:56.624Z,51.67
2017-07-21T08:52:10.930Z,52.08
2017-07-21T08:53:26.444Z,50.53
2017-07-21T08:54:42.100Z,49.77
2017-07-21T08:55:57.643Z,49.41
2017-07-21T08:57:13.296Z,47.91
2017-07-21T08:58:28.967Z,46.18
2017-07-21T08:59:44.703Z,44.67
2017-07-21T09:01:00.304Z,45.18
2017-07-21T09:02:14.365Z,45
2017-07-21T09:03:29.857Z,43.76
2017-07-21T09:04:45.940Z,44.27
2017-07-21T09:06:01.423Z,42.93
2017-07-21T09:07:16.965Z,41.6
2017-07-21T09:08:32.508Z,40.76
2017-07-21T09:09:48.233Z,38.71
2017-07-21T09:11:03.366Z,37.18
2017-07-21T09:12:19.024Z,36.98
2017-07-21T09:13:34.522Z,37.59
2017-07-21T09:14:50.269Z,37.88
2017-07-21T09:16:05.676Z,37.39
2017-07-21T09:17:21.197Z,37.43
2017-07-21T09:18:36.559Z,36.96
2017-07-21T09:19:52.302Z,35.88
2017-07-21T09:21:07.800Z,35.42
2017-07-21T09:22:23.495Z,34.34
2017-07-21T09:23:37.702Z,31.9
2017-07-21T09:24:53.442Z,33.38
2017-07-21T09:26:09.053Z,32.51
2017-07-21T09:27:24.476Z,31.82
2017-07-21T09:28:39.989Z,31.33
2017-07-21T09:29:55.986Z,32.5
2017-07-21T09:31:11.155Z,31.32
2017-07-21T09:32:25.433Z,32.01
2017-07-21T09:33:40.914Z,32.12
2017-07-21T09:34:55.635Z,31.92
2017-07-21T09:36:11.140Z,32.43
2017-07-21T09:37:26.676Z,32.51
2017-07-21T09:38:42.181Z,31.63
2017-07-21T09:39:58.090Z,30.94
2017-07-21T09:41:12.283Z,30.33
2017-07-21T09:42:27.709Z,31.81
2017-07-21T09:43:42.266Z,32.09
2017-07-21T09:46:27.046Z,31.2
2017-07-21T09:47:42.518Z,31.5
2017-07-21T09:48:58.001Z,30.53
2017-07-21T09:50:14.369Z,30.82
2017-07-21T09:51:30.321Z,30.04
2017-07-21T09:52:46.222Z,30.84
2017-07-21T09:54:01.714Z,30.65
2017-07-21T09:55:17.230Z,30.36
2017-07-21T09:56:33.150Z,30.38
2017-07-21T09:57:48.704Z,28.22
2017-07-21T09:59:04.178Z,28.22
2017-07-21T10:00:19.644Z,28.81
2017-07-21T10:01:35.602Z,28.51
2017-07-21T10:02:51.124Z,28.52
2017-07-21T10:04:07.016Z,28.51
2017-07-21T10:05:22.488Z,28.7
2017-07-21T10:06:38.240Z,29.09
2017-07-21T10:07:53.757Z,28.2
2017-07-21T10:09:09.221Z,29.76
2017-07-21T10:10:24.908Z,30.14
2017-07-21T10:11:40.648Z,29.94
2017-07-21T10:12:56.156Z,29.83
2017-07-21T10:14:11.641Z,29.05
2017-07-21T10:15:27.202Z,29.52
2017-07-21T10:16:42.931Z,30.01
2017-07-21T10:17:58.383Z,29.03
2017-07-21T10:19:12.564Z,28.85
2017-07-21T10:20:28.046Z,27.97
2017-07-21T10:21:43.760Z,28.55
2017-07-21T10:22:59.253Z,28.74
2017-07-21T10:24:15.106Z,28.65
2017-07-21T10:25:30.584Z,29.14
2017-07-21T10:26:46.296Z,29.73
2017-07-21T10:28:01.804Z,28.45
2017-07-21T10:29:17.412Z,29.24
2017-07-21T10:30:32.627Z,30.1
2017-07-21T10:31:48.383Z,31.14
2017-07-21T10:33:03.911Z,32.09
2017-07-21T10:34:19.416Z,32.75
2017-07-21T10:35:33.610Z,33.61
2017-07-21T10:36:49.401Z,34.18
2017-07-21T10:38:04.882Z,33.77
2017-07-21T10:39:19.260Z,33.89
2017-07-21T10:40:35.082Z,33.69
2017-07-21T10:41:50.945Z,33.8
2017-07-21T10:43:06.453Z,33.43
2017-07-21T10:44:21.984Z,33.05
2017-07-21T10:45:37.647Z,32.58
2017-07-21T10:46:53.412Z,31.93
2017-07-21T10:48:09.054Z,31.94
2017-07-21T10:49:24.570Z,30.77
2017-07-21T10:50:40.028Z,30.58
2017-07-21T10:51:55.739Z,30.87
2017-07-21T10:53:11.229Z,31.14
2017-07-21T10:54:26.752Z,31.62
2017-07-21T10:55:42.196Z,32.27
2017-07-21T10:56:57.940Z,31.59
2017-07-21T10:58:12.098Z,32.07
2017-07-21T10:59:27.649Z,33.25
2017-07-21T11:00:42.060Z,32.94
2017-07-21T11:01:57.431Z,34.09
2017-07-21T11:03:12.902Z,34.77
2017-07-21T11:04:28.505Z,34.57
2017-07-21T11:05:44.021Z,34.77
2017-07-21T11:06:59.767Z,34.58
2017-07-21T11:08:15.298Z,34.57
2017-07-21T11:09:30.801Z,34.77
2017-07-21T11:11:17.349Z,34.77
2017-07-21T11:12:32.841Z,34.08
2017-07-21T11:13:46.854Z,34.68
2017-07-21T11:15:02.502Z,33.23
2017-07-21T11:16:18.247Z,33.25
2017-07-21T11:17:33.756Z,32.87
2017-07-21T11:18:49.262Z,31.91
2017-07-21T11:20:05.175Z,31.63
2017-07-21T11:21:20.573Z,30.58
2017-07-21T11:22:36.053Z,30.88
2017-07-21T11:23:51.524Z,31.19
2017-07-21T11:25:07.158Z,30.7
2017-07-21T11:26:23.103Z,29.9
2017-07-21T11:27:38.613Z,30.96
2017-07-21T11:28:54.120Z,31.23
2017-07-21T11:30:08.138Z,31.91
2017-07-21T11:31:23.917Z,32.58
2017-07-21T11:32:39.387Z,33.25
2017-07-21T11:33:54.998Z,33.34
2017-07-21T11:35:10.558Z,33.43
2017-07-21T11:36:26.321Z,33.41
2017-07-21T11:37:41.788Z,33.8
2017-07-21T11:38:57.266Z,33.79
2017-07-21T11:40:12.773Z,34.26
2017-07-21T11:41:28.570Z,34.73
2017-07-21T11:42:44.006Z,35.3
2017-07-21T11:43:59.524Z,35.49
2017-07-21T11:45:14.958Z,35.88
2017-07-21T11:46:30.744Z,36.37
2017-07-21T11:47:46.249Z,36.76
2017-07-21T11:49:32.494Z,36.45
2017-07-21T11:50:48.009Z,36.27
2017-07-21T11:52:03.774Z,35.78
2017-07-21T11:53:19.338Z,35.22
2017-07-21T11:54:33.688Z,35.02
2017-07-21T11:55:47.886Z,35.43
2017-07-21T11:57:03.651Z,34.86
2017-07-21T11:59:48.241Z,34.67
2017-07-21T12:01:03.711Z,34.77
2017-07-21T12:02:18.153Z,35.25
2017-07-21T12:03:33.688Z,35.25
2017-07-21T12:04:49.163Z,35.16
2017-07-21T12:06:03.334Z,34.94
2017-07-21T12:07:19.019Z,35.8
2017-07-21T12:08:34.476Z,35.8
2017-07-21T12:10:03.394Z,36.37
2017-07-21T12:11:18.920Z,36.76
2017-07-21T12:12:33.334Z,37.13
2017-07-21T12:13:48.845Z,37.04
2017-07-21T12:15:04.353Z,37.79
2017-07-21T12:16:18.546Z,37.79
2017-07-21T12:17:34.349Z,37.21
2017-07-21T12:18:49.467Z,37.6
2017-07-21T12:20:04.910Z,38.57
2017-07-21T12:21:20.350Z,38.67
2017-07-21T12:22:36.068Z,37.89
2017-07-21T12:23:51.568Z,38.57
2017-07-21T12:25:07.193Z,38.38
2017-07-21T12:26:22.657Z,38.28
2017-07-21T12:27:38.424Z,38.28
2017-07-21T12:28:53.933Z,37.5
2017-07-21T12:30:09.446Z,37.7
2017-07-21T12:31:24.915Z,37.68
2017-07-21T12:32:40.825Z,37.39
2017-07-21T12:33:56.310Z,37.39
2017-07-21T12:35:11.773Z,37.68
2017-07-21T12:36:27.258Z,37.87
2017-07-21T12:37:43.375Z,37.77
2017-07-21T12:38:58.982Z,37.56
2017-07-21T12:40:14.121Z,37.68
2017-07-21T12:41:29.561Z,37.58
2017-07-21T12:42:45.388Z,37.68
2017-07-21T12:44:00.866Z,37.87
2017-07-21T12:45:16.159Z,37.79
2017-07-21T12:46:31.592Z,37.79
2017-07-21T12:47:46.011Z,37.23
2017-07-21T12:49:01.501Z,37.15
2017-07-21T12:50:16.996Z,37.15
2017-07-21T12:51:32.524Z,36.27
2017-07-21T12:52:48.272Z,36.66
2017-07-21T12:54:03.707Z,35.78
2017-07-21T12:55:19.290Z,35.3
2017-07-21T12:56:34.790Z,35.3
2017-07-21T12:57:50.690Z,35.39
2017-07-21T12:59:06.510Z,35.3
2017-07-21T13:00:22.000Z,35.88
2017-07-21T13:01:37.482Z,35.78
2017-07-21T13:02:53.190Z,36.18
2017-07-21T13:04:08.689Z,36.29
2017-07-21T13:05:24.184Z,36.86
2017-07-21T13:06:39.876Z,36.47
2017-07-21T13:07:55.668Z,36.27
2017-07-21T13:09:11.388Z,36.37
2017-07-21T13:10:26.836Z,35.98
2017-07-21T13:11:41.188Z,36.27
2017-07-21T13:12:56.928Z,36.18
2017-07-21T13:14:12.430Z,35.3
2017-07-21T13:15:27.997Z,35.78
2017-07-21T13:16:43.501Z,35.98
2017-07-21T13:17:59.201Z,35.88
2017-07-21T13:19:14.695Z,35.59
2017-07-21T13:20:30.196Z,35.69
2017-07-21T13:21:45.569Z,35.51
2017-07-21T13:23:00.013Z,34.83
2017-07-21T13:24:15.719Z,35.3
2017-07-21T13:25:31.232Z,35.51
2017-07-21T13:26:46.345Z,35.1
2017-07-21T13:28:02.331Z,35.47
2017-07-21T13:29:16.510Z,35.69
2017-07-21T13:30:32.023Z,35.67
2017-07-21T13:31:47.459Z,35.47
2017-07-21T13:33:03.217Z,35.2
2017-07-21T13:34:17.345Z,35.28
2017-07-21T13:35:32.839Z,35.86
2017-07-21T13:36:47.968Z,35.96
2017-07-21T13:38:03.733Z,35.86
2017-07-21T13:39:19.471Z,35.86
2017-07-21T13:40:33.881Z,35.77
2017-07-21T13:41:49.498Z,36.16
2017-07-21T13:43:05.302Z,36.45
2017-07-21T13:44:20.793Z,36.55
2017-07-21T13:45:36.325Z,36.25
2017-07-21T13:46:51.831Z,36.35
2017-07-21T13:48:07.842Z,35.38
2017-07-21T13:49:22.246Z,35.94
2017-07-21T13:50:36.398Z,36.33
2017-07-21T13:51:51.900Z,35.85
2017-07-21T13:53:07.605Z,35.65
2017-07-21T13:54:23.110Z,35.55
2017-07-21T13:55:38.615Z,35.75
2017-07-21T13:56:54.169Z,36.24
2017-07-21T13:58:09.899Z,36.14
2017-07-21T13:59:25.364Z,35.36
2017-07-21T14:00:41.140Z,36.33
2017-07-21T14:01:56.890Z,36.43
2017-07-21T14:03:12.579Z,35.55
2017-07-21T14:04:28.090Z,35.85
2017-07-21T14:05:43.626Z,35.75
2017-07-21T14:06:59.119Z,35.86
2017-07-21T14:08:15.054Z,35.96
2017-07-21T14:09:30.561Z,36.25
2017-07-21T14:10:46.047Z,36.16
2017-07-21T14:12:01.560Z,36.35
2017-07-21T14:13:17.287Z,36.35
2017-07-21T14:14:32.790Z,36.25
2017-07-21T14:15:48.487Z,35.86
2017-07-21T14:17:02.335Z,35.86
2017-07-21T14:18:18.086Z,35.38
2017-07-21T14:19:33.717Z,35.28
2017-07-21T14:20:49.427Z,35.47
2017-07-21T14:22:04.928Z,35.38
2017-07-21T14:23:20.684Z,35.3
2017-07-21T14:24:36.173Z,35.47
2017-07-21T14:25:51.673Z,35.67
2017-07-21T14:27:07.174Z,35.86
2017-07-21T14:28:23.042Z,35.86
2017-07-21T14:29:37.113Z,35.77
2017-07-21T14:30:52.614Z,35.86
2017-07-21T14:32:08.106Z,35.77
2017-07-21T14:33:24.033Z,36.06
2017-07-21T14:34:38.190Z,35.96
2017-07-21T14:35:53.701Z,35.67
2017-07-21T14:37:09.172Z,35.57
2017-07-21T14:38:24.929Z,36.14
2017-07-21T14:39:40.851Z,36.43
2017-07-21T14:40:56.299Z,36.72
2017-07-21T14:42:11.827Z,37
2017-07-21T14:43:27.718Z,37
2017-07-21T14:44:43.228Z,37.39
2017-07-21T14:45:57.284Z,37
2017-07-21T14:47:12.986Z,37
2017-07-21T14:48:28.714Z,37.08
2017-07-21T14:49:44.272Z,37.37
2017-07-21T14:50:59.944Z,37.66
2017-07-21T14:52:15.132Z,38.64
2017-07-21T14:53:30.852Z,38.44
2017-07-21T14:54:46.328Z,38.34
2017-07-21T14:56:01.842Z,38.24
2017-07-21T14:57:17.295Z,38.34
2017-07-21T14:58:33.131Z,38.15
2017-07-21T14:59:48.635Z,37.85
2017-07-21T15:01:04.123Z,36.98
2017-07-21T15:02:19.686Z,37.37
2017-07-21T15:03:34.327Z,37.76
2017-07-21T15:04:49.871Z,37.85
2017-07-21T15:06:05.576Z,38.71
2017-07-21T15:07:21.291Z,38.52
2017-07-21T15:08:36.988Z,39.1
2017-07-21T15:09:52.509Z,38.91
2017-07-21T15:11:07.995Z,39.1
2017-07-21T15:12:22.167Z,39
2017-07-21T15:13:36.616Z,39.59
2017-07-21T15:14:52.286Z,38.91
2017-07-21T15:16:06.433Z,38.81
2017-07-21T15:17:21.870Z,39.1
2017-07-21T15:18:37.625Z,39.49
2017-07-21T15:19:53.113Z,39.49
2017-07-21T15:21:08.634Z,39.1
2017-07-21T15:22:24.300Z,39.29
2017-07-21T15:23:40.179Z,39.78
2017-07-21T15:24:55.636Z,39.88
2017-07-21T15:26:11.197Z,39.59
2017-07-21T15:27:26.642Z,39.2
2017-07-21T15:28:42.369Z,39.59
2017-07-21T15:29:57.843Z,39.39
2017-07-21T15:31:13.593Z,38.91
2017-07-21T15:32:29.246Z,39.1
2017-07-21T15:33:45.188Z,38.52
2017-07-21T15:35:00.674Z,38.71
2017-07-21T15:36:16.137Z,39
2017-07-21T15:37:31.676Z,39.69
2017-07-21T15:38:47.413Z,39.69
2017-07-21T15:40:01.586Z,39.88
2017-07-21T15:41:17.192Z,39.69
2017-07-21T15:42:32.659Z,39.67
2017-07-21T15:43:48.363Z,39.47
2017-07-21T15:45:03.805Z,39.28
2017-07-21T15:46:19.377Z,38.89
2017-07-21T15:47:33.663Z,39.47
2017-07-21T15:48:49.393Z,39.76
2017-07-21T15:50:04.849Z,39.86
2017-07-21T15:51:20.415Z,39.67
2017-07-21T15:52:35.879Z,39.76
2017-07-21T15:53:51.661Z,39.76
2017-07-21T15:55:07.267Z,39.76
2017-07-21T15:56:22.852Z,39.76
2017-07-21T15:57:38.304Z,39.67
2017-07-21T15:58:54.041Z,39.86
2017-07-21T16:00:09.551Z,39.96
2017-07-21T16:01:25.055Z,39.76
2017-07-21T16:02:40.544Z,39.78
2017-07-21T16:03:56.471Z,39.49
2017-07-21T16:05:11.957Z,39
2017-07-21T16:06:27.439Z,38.42
2017-07-21T16:07:42.996Z,38.42
2017-07-21T16:08:58.695Z,38.83
2017-07-21T16:10:14.178Z,38.52
2017-07-21T16:11:29.711Z,38.83
2017-07-21T16:12:45.247Z,38.64
2017-07-21T16:14:01.006Z,38.34
2017-07-21T16:15:16.516Z,38.54
2017-07-21T16:16:31.688Z,38.15
2017-07-21T16:17:47.129Z,38.15
2017-07-21T16:19:02.867Z,38.54
2017-07-21T16:20:18.315Z,38.54
2017-07-21T16:21:33.860Z,38.24